sensor_id;sensor_type;location;lat;lon;timestamp;P1;durP1;ratioP1;P2;durP2;ratioP2
9541;SDS011;4809;48.224;8.572;2023-08-12T00:00:29;7.13;;;4.07;;
9541;SDS011;4809;48.224;8.572;2023-08-12T00:02:55;5.38;;;3.83;;
9541;SDS011;4809;48.224;8.572;2023-08-12T00:05:20;5.28;;;4.13;;
9541;SDS011;4809;48.224;8.572;2023-08-12T00:07:48;8.68;;;4.43;;
9541;SDS011;4809;48.224;8.572;2023-08-12T00:10:14;14.63;;;5.03;;
9541;SDS011;4809;48.224;8.572;2023-08-12T00:12:40;11.23;;;4.78;;
9541;SDS011;4809;48.224;8.572;2023-08-12T00:15:06;8.82;;;4.60;;
9541;SDS011;4809;48.224;8.572;2023-08-12T00:17:33;8.52;;;4.57;;
9541;SDS011;4809;48.224;8.572;2023-08-12T00:20:03;10.13;;;4.82;;
9541;SDS011;4809;48.224;8.572;2023-08-12T00:22:35;8.73;;;4.70;;
9541;SDS011;4809;48.224;8.572;2023-08-12T00:25:01;8.80;;;4.35;;
9541;SDS011;4809;48.224;8.572;2023-08-12T00:27:27;7.85;;;4.38;;
9541;SDS011;4809;48.224;8.572;2023-08-12T00:29:53;7.18;;;4.45;;
9541;SDS011;4809;48.224;8.572;2023-08-12T00:32:18;9.63;;;4.50;;
9541;SDS011;4809;48.224;8.572;2023-08-12T00:34:44;8.45;;;4.68;;
9541;SDS011;4809;48.224;8.572;2023-08-12T00:37:10;10.00;;;4.60;;
9541;SDS011;4809;48.224;8.572;2023-08-12T00:39:35;7.93;;;3.90;;
9541;SDS011;4809;48.224;8.572;2023-08-12T00:42:01;7.78;;;4.30;;
9541;SDS011;4809;48.224;8.572;2023-08-12T00:44:26;9.05;;;4.80;;
9541;SDS011;4809;48.224;8.572;2023-08-12T00:46:52;7.22;;;4.50;;
9541;SDS011;4809;48.224;8.572;2023-08-12T00:49:20;8.02;;;4.47;;
9541;SDS011;4809;48.224;8.572;2023-08-12T00:51:46;6.90;;;4.40;;
9541;SDS011;4809;48.224;8.572;2023-08-12T00:54:14;6.78;;;4.40;;
9541;SDS011;4809;48.224;8.572;2023-08-12T00:56:41;7.15;;;4.10;;
9541;SDS011;4809;48.224;8.572;2023-08-12T00:59:08;7.07;;;4.25;;
9541;SDS011;4809;48.224;8.572;2023-08-12T01:01:35;7.30;;;4.65;;
9541;SDS011;4809;48.224;8.572;2023-08-12T01:04:04;4.78;;;4.15;;
9541;SDS011;4809;48.224;8.572;2023-08-12T01:06:30;6.43;;;4.20;;
9541;SDS011;4809;48.224;8.572;2023-08-12T01:08:56;6.30;;;4.50;;
9541;SDS011;4809;48.224;8.572;2023-08-12T01:14:08;4.70;;;4.20;;
9541;SDS011;4809;48.224;8.572;2023-08-12T01:16:45;4.80;;;4.10;;
9541;SDS011;4809;48.224;8.572;2023-08-12T01:19:33;6.85;;;4.20;;
9541;SDS011;4809;48.224;8.572;2023-08-12T01:22:00;4.63;;;3.85;;
9541;SDS011;4809;48.224;8.572;2023-08-12T01:24:32;4.50;;;4.10;;
9541;SDS011;4809;48.224;8.572;2023-08-12T01:27:06;5.47;;;4.30;;
9541;SDS011;4809;48.224;8.572;2023-08-12T01:29:33;5.00;;;4.10;;
9541;SDS011;4809;48.224;8.572;2023-08-12T01:32:11;4.80;;;4.22;;
9541;SDS011;4809;48.224;8.572;2023-08-12T01:37:30;6.63;;;4.15;;
9541;SDS011;4809;48.224;8.572;2023-08-12T01:39:58;5.57;;;4.40;;
9541;SDS011;4809;48.224;8.572;2023-08-12T01:42:29;4.65;;;4.15;;
9541;SDS011;4809;48.224;8.572;2023-08-12T01:44:55;5.80;;;4.30;;
9541;SDS011;4809;48.224;8.572;2023-08-12T01:47:21;5.65;;;4.55;;
9541;SDS011;4809;48.224;8.572;2023-08-12T01:49:47;4.93;;;4.40;;
9541;SDS011;4809;48.224;8.572;2023-08-12T01:52:12;5.10;;;4.32;;
9541;SDS011;4809;48.224;8.572;2023-08-12T01:54:38;5.10;;;4.00;;
9541;SDS011;4809;48.224;8.572;2023-08-12T01:57:04;4.47;;;4.07;;
9541;SDS011;4809;48.224;8.572;2023-08-12T01:59:36;4.90;;;4.30;;
9541;SDS011;4809;48.224;8.572;2023-08-12T02:02:02;5.65;;;4.40;;
9541;SDS011;4809;48.224;8.572;2023-08-12T02:04:28;4.90;;;4.40;;
9541;SDS011;4809;48.224;8.572;2023-08-12T02:06:54;4.13;;;3.80;;
9541;SDS011;4809;48.224;8.572;2023-08-12T02:09:20;4.40;;;4.00;;
9541;SDS011;4809;48.224;8.572;2023-08-12T02:11:46;4.43;;;4.03;;
9541;SDS011;4809;48.224;8.572;2023-08-12T02:14:12;5.45;;;3.83;;
9541;SDS011;4809;48.224;8.572;2023-08-12T02:16:38;4.68;;;4.13;;
9541;SDS011;4809;48.224;8.572;2023-08-12T02:19:03;4.68;;;4.18;;
9541;SDS011;4809;48.224;8.572;2023-08-12T02:21:29;6.78;;;4.63;;
9541;SDS011;4809;48.224;8.572;2023-08-12T02:23:55;4.65;;;3.92;;
9541;SDS011;4809;48.224;8.572;2023-08-12T02:26:20;4.63;;;4.13;;
9541;SDS011;4809;48.224;8.572;2023-08-12T02:28:46;5.25;;;4.53;;
9541;SDS011;4809;48.224;8.572;2023-08-12T02:31:11;5.00;;;4.50;;
9541;SDS011;4809;48.224;8.572;2023-08-12T02:33:37;5.32;;;4.38;;
9541;SDS011;4809;48.224;8.572;2023-08-12T02:36:03;4.57;;;4.15;;
9541;SDS011;4809;48.224;8.572;2023-08-12T02:38:29;5.35;;;4.32;;
9541;SDS011;4809;48.224;8.572;2023-08-12T02:40:54;4.30;;;3.90;;
9541;SDS011;4809;48.224;8.572;2023-08-12T02:43:20;6.50;;;4.20;;
9541;SDS011;4809;48.224;8.572;2023-08-12T02:45:46;6.05;;;4.70;;
9541;SDS011;4809;48.224;8.572;2023-08-12T02:48:11;5.88;;;4.35;;
9541;SDS011;4809;48.224;8.572;2023-08-12T02:50:38;4.90;;;4.40;;
9541;SDS011;4809;48.224;8.572;2023-08-12T02:53:04;5.70;;;4.32;;
9541;SDS011;4809;48.224;8.572;2023-08-12T02:55:30;5.25;;;4.60;;
9541;SDS011;4809;48.224;8.572;2023-08-12T02:57:59;4.65;;;4.22;;
9541;SDS011;4809;48.224;8.572;2023-08-12T03:00:28;4.43;;;4.03;;
9541;SDS011;4809;48.224;8.572;2023-08-12T03:02:54;4.85;;;4.45;;
9541;SDS011;4809;48.224;8.572;2023-08-12T03:05:20;4.55;;;4.15;;
9541;SDS011;4809;48.224;8.572;2023-08-12T03:07:46;4.65;;;4.15;;
9541;SDS011;4809;48.224;8.572;2023-08-12T03:10:11;4.50;;;4.10;;
9541;SDS011;4809;48.224;8.572;2023-08-12T03:12:37;6.68;;;4.47;;
9541;SDS011;4809;48.224;8.572;2023-08-12T03:15:03;4.68;;;4.20;;
9541;SDS011;4809;48.224;8.572;2023-08-12T03:17:30;4.65;;;4.18;;
9541;SDS011;4809;48.224;8.572;2023-08-12T03:19:56;5.60;;;4.45;;
9541;SDS011;4809;48.224;8.572;2023-08-12T03:22:24;5.10;;;4.60;;
9541;SDS011;4809;48.224;8.572;2023-08-12T03:24:50;5.25;;;4.40;;
9541;SDS011;4809;48.224;8.572;2023-08-12T03:27:16;5.68;;;4.50;;
9541;SDS011;4809;48.224;8.572;2023-08-12T03:29:41;5.15;;;4.43;;
9541;SDS011;4809;48.224;8.572;2023-08-12T03:32:07;5.00;;;4.30;;
9541;SDS011;4809;48.224;8.572;2023-08-12T03:34:32;4.70;;;4.18;;
9541;SDS011;4809;48.224;8.572;2023-08-12T03:36:58;4.53;;;4.13;;
9541;SDS011;4809;48.224;8.572;2023-08-12T03:39:24;4.80;;;4.30;;
9541;SDS011;4809;48.224;8.572;2023-08-12T03:41:49;4.40;;;4.00;;
9541;SDS011;4809;48.224;8.572;2023-08-12T03:44:15;4.45;;;4.05;;
9541;SDS011;4809;48.224;8.572;2023-08-12T03:46:41;4.90;;;4.40;;
9541;SDS011;4809;48.224;8.572;2023-08-12T03:49:07;4.47;;;4.07;;
9541;SDS011;4809;48.224;8.572;2023-08-12T03:51:33;4.65;;;4.25;;
9541;SDS011;4809;48.224;8.572;2023-08-12T03:53:58;4.80;;;4.32;;
9541;SDS011;4809;48.224;8.572;2023-08-12T03:56:24;4.57;;;4.05;;
9541;SDS011;4809;48.224;8.572;2023-08-12T03:58:50;6.13;;;4.43;;
9541;SDS011;4809;48.224;8.572;2023-08-12T04:01:16;5.18;;;4.20;;
9541;SDS011;4809;48.224;8.572;2023-08-12T04:03:42;5.15;;;4.32;;
9541;SDS011;4809;48.224;8.572;2023-08-12T04:06:07;5.05;;;4.55;;
9541;SDS011;4809;48.224;8.572;2023-08-12T04:08:33;4.70;;;4.30;;
9541;SDS011;4809;48.224;8.572;2023-08-12T04:10:59;6.10;;;4.68;;
9541;SDS011;4809;48.224;8.572;2023-08-12T04:13:25;5.47;;;4.80;;
9541;SDS011;4809;48.224;8.572;2023-08-12T04:15:51;4.90;;;4.35;;
9541;SDS011;4809;48.224;8.572;2023-08-12T04:18:18;4.70;;;4.30;;
9541;SDS011;4809;48.224;8.572;2023-08-12T04:20:48;5.53;;;4.20;;
9541;SDS011;4809;48.224;8.572;2023-08-12T04:23:15;4.95;;;4.55;;
9541;SDS011;4809;48.224;8.572;2023-08-12T04:25:42;5.90;;;4.18;;
9541;SDS011;4809;48.224;8.572;2023-08-12T04:28:10;5.65;;;4.72;;
9541;SDS011;4809;48.224;8.572;2023-08-12T04:30:40;4.75;;;4.18;;
9541;SDS011;4809;48.224;8.572;2023-08-12T04:33:09;4.70;;;4.25;;
9541;SDS011;4809;48.224;8.572;2023-08-12T04:35:35;4.82;;;4.40;;
9541;SDS011;4809;48.224;8.572;2023-08-12T04:38:00;5.10;;;4.63;;
9541;SDS011;4809;48.224;8.572;2023-08-12T04:40:26;5.50;;;4.60;;
9541;SDS011;4809;48.224;8.572;2023-08-12T04:42:52;4.65;;;4.20;;
9541;SDS011;4809;48.224;8.572;2023-08-12T04:45:17;4.88;;;4.38;;
9541;SDS011;4809;48.224;8.572;2023-08-12T04:47:43;4.65;;;4.22;;
9541;SDS011;4809;48.224;8.572;2023-08-12T04:50:09;4.57;;;4.18;;
9541;SDS011;4809;48.224;8.572;2023-08-12T04:52:34;4.72;;;4.32;;
9541;SDS011;4809;48.224;8.572;2023-08-12T04:55:00;5.32;;;4.50;;
9541;SDS011;4809;48.224;8.572;2023-08-12T04:57:26;4.88;;;4.10;;
9541;SDS011;4809;48.224;8.572;2023-08-12T04:59:53;4.68;;;4.10;;
9541;SDS011;4809;48.224;8.572;2023-08-12T05:02:19;4.60;;;4.20;;
9541;SDS011;4809;48.224;8.572;2023-08-12T05:04:49;5.18;;;4.13;;
9541;SDS011;4809;48.224;8.572;2023-08-12T05:07:16;4.40;;;4.00;;
9541;SDS011;4809;48.224;8.572;2023-08-12T05:09:41;4.65;;;4.25;;
9541;SDS011;4809;48.224;8.572;2023-08-12T05:12:09;4.40;;;4.00;;
9541;SDS011;4809;48.224;8.572;2023-08-12T05:14:36;4.97;;;4.00;;
9541;SDS011;4809;48.224;8.572;2023-08-12T05:17:02;4.85;;;4.13;;
9541;SDS011;4809;48.224;8.572;2023-08-12T05:19:27;6.15;;;4.20;;
9541;SDS011;4809;48.224;8.572;2023-08-12T05:21:53;5.05;;;4.25;;
9541;SDS011;4809;48.224;8.572;2023-08-12T05:24:19;4.32;;;3.75;;
9541;SDS011;4809;48.224;8.572;2023-08-12T05:26:44;5.10;;;4.40;;
9541;SDS011;4809;48.224;8.572;2023-08-12T05:29:10;4.82;;;3.90;;
9541;SDS011;4809;48.224;8.572;2023-08-12T05:31:36;4.85;;;4.22;;
9541;SDS011;4809;48.224;8.572;2023-08-12T05:34:02;4.30;;;3.90;;
9541;SDS011;4809;48.224;8.572;2023-08-12T05:36:28;5.28;;;4.10;;
9541;SDS011;4809;48.224;8.572;2023-08-12T05:38:54;4.65;;;3.92;;
9541;SDS011;4809;48.224;8.572;2023-08-12T05:41:19;4.15;;;3.75;;
9541;SDS011;4809;48.224;8.572;2023-08-12T05:43:45;6.75;;;4.43;;
9541;SDS011;4809;48.224;8.572;2023-08-12T05:46:13;5.50;;;4.78;;
9541;SDS011;4809;48.224;8.572;2023-08-12T05:48:38;6.10;;;5.10;;
9541;SDS011;4809;48.224;8.572;2023-08-12T05:51:04;6.82;;;5.00;;
9541;SDS011;4809;48.224;8.572;2023-08-12T05:53:29;5.45;;;4.70;;
9541;SDS011;4809;48.224;8.572;2023-08-12T05:55:55;5.55;;;5.00;;
9541;SDS011;4809;48.224;8.572;2023-08-12T05:58:21;5.28;;;4.78;;
9541;SDS011;4809;48.224;8.572;2023-08-12T06:00:46;8.38;;;4.95;;
9541;SDS011;4809;48.224;8.572;2023-08-12T06:03:12;5.88;;;5.10;;
9541;SDS011;4809;48.224;8.572;2023-08-12T06:05:39;5.68;;;4.70;;
9541;SDS011;4809;48.224;8.572;2023-08-12T06:08:06;5.05;;;4.55;;
9541;SDS011;4809;48.224;8.572;2023-08-12T06:10:33;5.40;;;4.80;;
9541;SDS011;4809;48.224;8.572;2023-08-12T06:12:58;5.05;;;4.47;;
9541;SDS011;4809;48.224;8.572;2023-08-12T06:15:24;7.57;;;4.88;;
9541;SDS011;4809;48.224;8.572;2023-08-12T06:17:50;5.80;;;4.55;;
9541;SDS011;4809;48.224;8.572;2023-08-12T06:20:15;6.68;;;4.40;;
9541;SDS011;4809;48.224;8.572;2023-08-12T06:22:41;4.75;;;3.90;;
9541;SDS011;4809;48.224;8.572;2023-08-12T06:25:07;4.78;;;4.38;;
9541;SDS011;4809;48.224;8.572;2023-08-12T06:27:33;4.63;;;4.22;;
9541;SDS011;4809;48.224;8.572;2023-08-12T06:29:58;4.03;;;3.60;;
9541;SDS011;4809;48.224;8.572;2023-08-12T06:32:24;3.75;;;3.45;;
9541;SDS011;4809;48.224;8.572;2023-08-12T06:34:50;5.10;;;3.50;;
9541;SDS011;4809;48.224;8.572;2023-08-12T06:37:15;3.80;;;3.50;;
9541;SDS011;4809;48.224;8.572;2023-08-12T06:39:41;4.13;;;3.72;;
9541;SDS011;4809;48.224;8.572;2023-08-12T06:42:07;3.85;;;3.50;;
9541;SDS011;4809;48.224;8.572;2023-08-12T06:44:32;3.70;;;3.22;;
9541;SDS011;4809;48.224;8.572;2023-08-12T06:46:58;4.13;;;3.63;;
9541;SDS011;4809;48.224;8.572;2023-08-12T06:49:23;4.03;;;3.60;;
9541;SDS011;4809;48.224;8.572;2023-08-12T06:51:49;4.40;;;4.00;;
9541;SDS011;4809;48.224;8.572;2023-08-12T06:54:15;4.07;;;3.70;;
9541;SDS011;4809;48.224;8.572;2023-08-12T06:56:40;4.22;;;3.65;;
9541;SDS011;4809;48.224;8.572;2023-08-12T06:59:06;4.20;;;3.80;;
9541;SDS011;4809;48.224;8.572;2023-08-12T07:01:32;5.35;;;4.20;;
9541;SDS011;4809;48.224;8.572;2023-08-12T07:03:57;4.45;;;4.05;;
9541;SDS011;4809;48.224;8.572;2023-08-12T07:06:23;4.55;;;4.15;;
9541;SDS011;4809;48.224;8.572;2023-08-12T07:08:48;5.43;;;4.22;;
9541;SDS011;4809;48.224;8.572;2023-08-12T07:11:14;5.20;;;4.32;;
9541;SDS011;4809;48.224;8.572;2023-08-12T07:13:40;4.50;;;4.10;;
9541;SDS011;4809;48.224;8.572;2023-08-12T07:16:06;4.70;;;4.03;;
9541;SDS011;4809;48.224;8.572;2023-08-12T07:18:32;4.60;;;4.20;;
9541;SDS011;4809;48.224;8.572;2023-08-12T07:20:58;4.97;;;4.20;;
9541;SDS011;4809;48.224;8.572;2023-08-12T07:23:24;4.28;;;3.85;;
9541;SDS011;4809;48.224;8.572;2023-08-12T07:25:50;4.40;;;4.00;;
9541;SDS011;4809;48.224;8.572;2023-08-12T07:28:16;5.20;;;4.70;;
9541;SDS011;4809;48.224;8.572;2023-08-12T07:30:42;4.40;;;3.97;;
9541;SDS011;4809;48.224;8.572;2023-08-12T07:33:08;3.83;;;3.53;;
9541;SDS011;4809;48.224;8.572;2023-08-12T07:35:34;4.38;;;3.95;;
9541;SDS011;4809;48.224;8.572;2023-08-12T07:37:59;4.45;;;3.75;;
9541;SDS011;4809;48.224;8.572;2023-08-12T07:40:25;4.57;;;3.80;;
9541;SDS011;4809;48.224;8.572;2023-08-12T07:42:52;3.83;;;3.53;;
9541;SDS011;4809;48.224;8.572;2023-08-12T07:45:17;3.63;;;3.33;;
9541;SDS011;4809;48.224;8.572;2023-08-12T07:47:43;4.10;;;3.67;;
9541;SDS011;4809;48.224;8.572;2023-08-12T07:50:09;3.90;;;3.50;;
9541;SDS011;4809;48.224;8.572;2023-08-12T07:52:35;5.70;;;3.90;;
9541;SDS011;4809;48.224;8.572;2023-08-12T07:55:01;3.88;;;3.58;;
9541;SDS011;4809;48.224;8.572;2023-08-12T07:57:27;3.90;;;3.60;;
9541;SDS011;4809;48.224;8.572;2023-08-12T07:59:53;3.47;;;3.20;;
9541;SDS011;4809;48.224;8.572;2023-08-12T08:02:18;4.28;;;3.70;;
9541;SDS011;4809;48.224;8.572;2023-08-12T08:04:44;4.15;;;3.75;;
9541;SDS011;4809;48.224;8.572;2023-08-12T08:07:13;4.15;;;3.53;;
9541;SDS011;4809;48.224;8.572;2023-08-12T08:09:39;3.95;;;3.58;;
9541;SDS011;4809;48.224;8.572;2023-08-12T08:12:05;4.65;;;3.50;;
9541;SDS011;4809;48.224;8.572;2023-08-12T08:14:32;3.97;;;3.60;;
9541;SDS011;4809;48.224;8.572;2023-08-12T08:16:58;3.67;;;3.38;;
9541;SDS011;4809;48.224;8.572;2023-08-12T08:19:23;4.57;;;3.42;;
9541;SDS011;4809;48.224;8.572;2023-08-12T08:21:49;4.90;;;3.47;;
9541;SDS011;4809;48.224;8.572;2023-08-12T08:24:15;5.60;;;3.35;;
9541;SDS011;4809;48.224;8.572;2023-08-12T08:26:40;4.32;;;3.83;;
9541;SDS011;4809;48.224;8.572;2023-08-12T08:29:06;7.47;;;3.63;;
9541;SDS011;4809;48.224;8.572;2023-08-12T08:31:32;4.15;;;3.75;;
9541;SDS011;4809;48.224;8.572;2023-08-12T08:33:58;4.60;;;3.83;;
9541;SDS011;4809;48.224;8.572;2023-08-12T08:36:23;4.53;;;3.35;;
9541;SDS011;4809;48.224;8.572;2023-08-12T08:38:49;5.18;;;3.60;;
9541;SDS011;4809;48.224;8.572;2023-08-12T08:41:16;4.63;;;3.28;;
9541;SDS011;4809;48.224;8.572;2023-08-12T08:43:42;3.75;;;3.30;;
9541;SDS011;4809;48.224;8.572;2023-08-12T08:46:13;4.15;;;3.75;;
9541;SDS011;4809;48.224;8.572;2023-08-12T08:48:43;5.95;;;3.38;;
9541;SDS011;4809;48.224;8.572;2023-08-12T08:51:10;5.10;;;3.65;;
9541;SDS011;4809;48.224;8.572;2023-08-12T08:53:39;3.80;;;3.50;;
9541;SDS011;4809;48.224;8.572;2023-08-12T08:56:06;5.10;;;3.45;;
9541;SDS011;4809;48.224;8.572;2023-08-12T08:58:33;3.75;;;3.45;;
9541;SDS011;4809;48.224;8.572;2023-08-12T09:00:59;3.97;;;3.58;;
9541;SDS011;4809;48.224;8.572;2023-08-12T09:03:26;9.85;;;8.85;;
9541;SDS011;4809;48.224;8.572;2023-08-12T09:05:52;4.53;;;3.60;;
9541;SDS011;4809;48.224;8.572;2023-08-12T09:08:20;3.75;;;3.38;;
9541;SDS011;4809;48.224;8.572;2023-08-12T09:10:47;3.70;;;3.40;;
9541;SDS011;4809;48.224;8.572;2023-08-12T09:13:14;4.03;;;3.58;;
9541;SDS011;4809;48.224;8.572;2023-08-12T09:15:40;4.13;;;3.58;;
9541;SDS011;4809;48.224;8.572;2023-08-12T09:18:06;3.70;;;3.40;;
9541;SDS011;4809;48.224;8.572;2023-08-12T09:20:35;4.50;;;3.67;;
9541;SDS011;4809;48.224;8.572;2023-08-12T09:23:01;4.00;;;3.60;;
9541;SDS011;4809;48.224;8.572;2023-08-12T09:25:27;4.80;;;3.50;;
9541;SDS011;4809;48.224;8.572;2023-08-12T09:27:54;4.55;;;3.75;;
9541;SDS011;4809;48.224;8.572;2023-08-12T09:30:23;7.60;;;3.47;;
9541;SDS011;4809;48.224;8.572;2023-08-12T09:32:59;4.28;;;3.40;;
9541;SDS011;4809;48.224;8.572;2023-08-12T09:35:33;4.20;;;3.70;;
9541;SDS011;4809;48.224;8.572;2023-08-12T09:38:06;5.32;;;3.67;;
9541;SDS011;4809;48.224;8.572;2023-08-12T09:40:36;3.72;;;3.30;;
9541;SDS011;4809;48.224;8.572;2023-08-12T09:43:03;5.18;;;3.75;;
9541;SDS011;4809;48.224;8.572;2023-08-12T09:45:30;4.68;;;4.10;;
9541;SDS011;4809;48.224;8.572;2023-08-12T09:47:56;4.28;;;3.83;;
9541;SDS011;4809;48.224;8.572;2023-08-12T09:50:23;5.65;;;4.00;;
9541;SDS011;4809;48.224;8.572;2023-08-12T09:52:53;4.40;;;4.00;;
9541;SDS011;4809;48.224;8.572;2023-08-12T09:55:20;5.22;;;3.83;;
9541;SDS011;4809;48.224;8.572;2023-08-12T09:57:48;4.38;;;3.97;;
9541;SDS011;4809;48.224;8.572;2023-08-12T10:00:18;5.07;;;4.10;;
9541;SDS011;4809;48.224;8.572;2023-08-12T10:02:45;3.88;;;3.58;;
9541;SDS011;4809;48.224;8.572;2023-08-12T10:05:12;3.85;;;3.55;;
9541;SDS011;4809;48.224;8.572;2023-08-12T10:07:45;3.85;;;3.55;;
9541;SDS011;4809;48.224;8.572;2023-08-12T10:10:11;6.07;;;3.70;;
9541;SDS011;4809;48.224;8.572;2023-08-12T10:12:38;4.10;;;3.70;;
9541;SDS011;4809;48.224;8.572;2023-08-12T10:15:05;4.28;;;3.88;;
9541;SDS011;4809;48.224;8.572;2023-08-12T10:17:33;4.63;;;4.00;;
9541;SDS011;4809;48.224;8.572;2023-08-12T10:20:00;4.30;;;3.90;;
9541;SDS011;4809;48.224;8.572;2023-08-12T10:22:28;4.00;;;3.70;;
9541;SDS011;4809;48.224;8.572;2023-08-12T10:24:55;5.90;;;3.92;;
9541;SDS011;4809;48.224;8.572;2023-08-12T10:27:23;4.30;;;3.90;;
9541;SDS011;4809;48.224;8.572;2023-08-12T10:29:50;4.38;;;3.90;;
9541;SDS011;4809;48.224;8.572;2023-08-12T10:32:16;4.25;;;3.80;;
9541;SDS011;4809;48.224;8.572;2023-08-12T10:34:42;6.38;;;3.85;;
9541;SDS011;4809;48.224;8.572;2023-08-12T10:37:08;4.10;;;3.70;;
9541;SDS011;4809;48.224;8.572;2023-08-12T10:39:36;6.10;;;3.97;;
9541;SDS011;4809;48.224;8.572;2023-08-12T10:42:02;6.05;;;3.60;;
9541;SDS011;4809;48.224;8.572;2023-08-12T10:47:30;4.82;;;4.20;;
9541;SDS011;4809;48.224;8.572;2023-08-12T10:49:57;11.02;;;4.00;;
9541;SDS011;4809;48.224;8.572;2023-08-12T10:52:30;4.07;;;3.28;;
9541;SDS011;4809;48.224;8.572;2023-08-12T10:57:51;4.28;;;3.67;;
9541;SDS011;4809;48.224;8.572;2023-08-12T11:00:27;3.67;;;3.33;;
9541;SDS011;4809;48.224;8.572;2023-08-12T11:02:55;3.95;;;3.50;;
9541;SDS011;4809;48.224;8.572;2023-08-12T11:05:22;3.83;;;3.35;;
9541;SDS011;4809;48.224;8.572;2023-08-12T11:07:59;3.83;;;3.25;;
9541;SDS011;4809;48.224;8.572;2023-08-12T11:10:27;5.35;;;3.55;;
9541;SDS011;4809;48.224;8.572;2023-08-12T11:12:57;3.53;;;3.20;;
9541;SDS011;4809;48.224;8.572;2023-08-12T11:15:33;5.10;;;3.28;;
9541;SDS011;4809;48.224;8.572;2023-08-12T11:18:06;3.40;;;3.10;;
9541;SDS011;4809;48.224;8.572;2023-08-12T11:20:34;4.63;;;3.42;;
9541;SDS011;4809;48.224;8.572;2023-08-12T11:23:01;3.40;;;3.10;;
9541;SDS011;4809;48.224;8.572;2023-08-12T11:25:30;3.83;;;3.13;;
9541;SDS011;4809;48.224;8.572;2023-08-12T11:27:57;4.78;;;3.45;;
9541;SDS011;4809;48.224;8.572;2023-08-12T11:30:23;6.20;;;3.33;;
9541;SDS011;4809;48.224;8.572;2023-08-12T11:32:49;4.47;;;3.40;;
9541;SDS011;4809;48.224;8.572;2023-08-12T11:35:17;3.78;;;3.35;;
9541;SDS011;4809;48.224;8.572;2023-08-12T11:37:44;4.55;;;3.60;;
9541;SDS011;4809;48.224;8.572;2023-08-12T11:40:24;4.65;;;3.92;;
9541;SDS011;4809;48.224;8.572;2023-08-12T11:42:50;4.60;;;4.10;;
9541;SDS011;4809;48.224;8.572;2023-08-12T11:45:18;6.05;;;3.95;;
9541;SDS011;4809;48.224;8.572;2023-08-12T11:47:45;4.57;;;4.18;;
9541;SDS011;4809;48.224;8.572;2023-08-12T11:50:17;4.57;;;4.18;;
9541;SDS011;4809;48.224;8.572;2023-08-12T11:52:43;4.72;;;4.25;;
9541;SDS011;4809;48.224;8.572;2023-08-12T11:55:09;5.00;;;4.53;;
9541;SDS011;4809;48.224;8.572;2023-08-12T11:57:35;5.22;;;4.55;;
9541;SDS011;4809;48.224;8.572;2023-08-12T12:00:02;4.95;;;4.40;;
9541;SDS011;4809;48.224;8.572;2023-08-12T12:03:07;6.30;;;4.82;;
9541;SDS011;4809;48.224;8.572;2023-08-12T12:05:29;10.18;;;5.05;;
9541;SDS011;4809;48.224;8.572;2023-08-12T12:07:59;11.13;;;6.03;;
9541;SDS011;4809;48.224;8.572;2023-08-12T12:10:34;13.73;;;5.90;;
9541;SDS011;4809;48.224;8.572;2023-08-12T12:13:00;8.38;;;4.97;;
9541;SDS011;4809;48.224;8.572;2023-08-12T12:15:28;9.00;;;4.53;;
9541;SDS011;4809;48.224;8.572;2023-08-12T12:17:53;9.32;;;5.28;;
9541;SDS011;4809;48.224;8.572;2023-08-12T12:20:19;6.97;;;4.50;;
9541;SDS011;4809;48.224;8.572;2023-08-12T12:22:46;8.88;;;4.40;;
9541;SDS011;4809;48.224;8.572;2023-08-12T12:25:13;8.85;;;4.15;;
9541;SDS011;4809;48.224;8.572;2023-08-12T12:27:42;7.80;;;4.10;;
9541;SDS011;4809;48.224;8.572;2023-08-12T12:30:09;5.85;;;4.00;;
9541;SDS011;4809;48.224;8.572;2023-08-12T12:32:36;5.97;;;3.80;;
9541;SDS011;4809;48.224;8.572;2023-08-12T12:35:02;6.65;;;4.07;;
9541;SDS011;4809;48.224;8.572;2023-08-12T12:37:28;6.95;;;4.00;;
9541;SDS011;4809;48.224;8.572;2023-08-12T12:39:54;6.68;;;4.30;;
9541;SDS011;4809;48.224;8.572;2023-08-12T12:42:20;5.70;;;4.03;;
9541;SDS011;4809;48.224;8.572;2023-08-12T12:44:46;7.10;;;3.90;;
9541;SDS011;4809;48.224;8.572;2023-08-12T12:47:11;7.15;;;4.53;;
9541;SDS011;4809;48.224;8.572;2023-08-12T12:49:38;6.95;;;4.32;;
9541;SDS011;4809;48.224;8.572;2023-08-12T12:52:04;7.57;;;4.65;;
9541;SDS011;4809;48.224;8.572;2023-08-12T12:54:30;6.55;;;4.28;;
9541;SDS011;4809;48.224;8.572;2023-08-12T12:56:56;6.88;;;3.95;;
9541;SDS011;4809;48.224;8.572;2023-08-12T12:59:21;6.75;;;3.88;;
9541;SDS011;4809;48.224;8.572;2023-08-12T13:01:48;6.05;;;4.00;;
9541;SDS011;4809;48.224;8.572;2023-08-12T13:04:13;4.72;;;3.60;;
9541;SDS011;4809;48.224;8.572;2023-08-12T13:06:39;5.43;;;3.65;;
9541;SDS011;4809;48.224;8.572;2023-08-12T13:09:05;7.53;;;3.60;;
9541;SDS011;4809;48.224;8.572;2023-08-12T13:11:31;5.32;;;3.53;;
9541;SDS011;4809;48.224;8.572;2023-08-12T13:13:59;5.22;;;3.50;;
9541;SDS011;4809;48.224;8.572;2023-08-12T13:16:25;5.20;;;3.75;;
9541;SDS011;4809;48.224;8.572;2023-08-12T13:18:50;5.20;;;3.67;;
9541;SDS011;4809;48.224;8.572;2023-08-12T13:21:16;6.57;;;3.90;;
9541;SDS011;4809;48.224;8.572;2023-08-12T13:23:42;4.30;;;3.90;;
9541;SDS011;4809;48.224;8.572;2023-08-12T13:26:07;5.05;;;4.55;;
9541;SDS011;4809;48.224;8.572;2023-08-12T13:28:33;7.38;;;6.68;;
9541;SDS011;4809;48.224;8.572;2023-08-12T13:30:59;5.75;;;4.25;;
9541;SDS011;4809;48.224;8.572;2023-08-12T13:33:24;6.93;;;4.30;;
9541;SDS011;4809;48.224;8.572;2023-08-12T13:35:50;5.18;;;4.38;;
9541;SDS011;4809;48.224;8.572;2023-08-12T13:38:16;5.30;;;4.05;;
9541;SDS011;4809;48.224;8.572;2023-08-12T13:40:41;5.25;;;4.28;;
9541;SDS011;4809;48.224;8.572;2023-08-12T13:43:07;5.35;;;4.28;;
9541;SDS011;4809;48.224;8.572;2023-08-12T13:45:33;4.78;;;4.18;;
9541;SDS011;4809;48.224;8.572;2023-08-12T13:47:58;6.03;;;4.47;;
9541;SDS011;4809;48.224;8.572;2023-08-12T13:50:24;5.97;;;4.22;;
9541;SDS011;4809;48.224;8.572;2023-08-12T13:52:50;4.70;;;4.20;;
9541;SDS011;4809;48.224;8.572;2023-08-12T13:55:15;5.85;;;4.30;;
9541;SDS011;4809;48.224;8.572;2023-08-12T13:57:41;6.32;;;4.70;;
9541;SDS011;4809;48.224;8.572;2023-08-12T14:00:07;4.50;;;4.10;;
9541;SDS011;4809;48.224;8.572;2023-08-12T14:02:38;4.95;;;4.15;;
9541;SDS011;4809;48.224;8.572;2023-08-12T14:05:04;4.47;;;4.07;;
9541;SDS011;4809;48.224;8.572;2023-08-12T14:07:30;6.88;;;4.30;;
9541;SDS011;4809;48.224;8.572;2023-08-12T14:09:57;5.50;;;4.28;;
9541;SDS011;4809;48.224;8.572;2023-08-12T14:12:23;4.40;;;3.90;;
9541;SDS011;4809;48.224;8.572;2023-08-12T14:14:49;4.75;;;3.90;;
9541;SDS011;4809;48.224;8.572;2023-08-12T14:17:15;4.35;;;3.95;;
9541;SDS011;4809;48.224;8.572;2023-08-12T14:19:43;4.57;;;4.13;;
9541;SDS011;4809;48.224;8.572;2023-08-12T14:22:12;4.75;;;3.80;;
9541;SDS011;4809;48.224;8.572;2023-08-12T14:24:38;4.20;;;3.80;;
9541;SDS011;4809;48.224;8.572;2023-08-12T14:27:04;5.82;;;3.78;;
9541;SDS011;4809;48.224;8.572;2023-08-12T14:29:30;4.68;;;4.05;;
9541;SDS011;4809;48.224;8.572;2023-08-12T14:31:56;4.05;;;3.65;;
9541;SDS011;4809;48.224;8.572;2023-08-12T14:34:22;4.85;;;3.90;;
9541;SDS011;4809;48.224;8.572;2023-08-12T14:36:48;4.25;;;3.58;;
9541;SDS011;4809;48.224;8.572;2023-08-12T14:39:13;4.25;;;3.83;;
9541;SDS011;4809;48.224;8.572;2023-08-12T14:41:39;5.57;;;4.03;;
9541;SDS011;4809;48.224;8.572;2023-08-12T14:44:05;6.13;;;3.70;;
9541;SDS011;4809;48.224;8.572;2023-08-12T14:46:30;4.20;;;3.70;;
9541;SDS011;4809;48.224;8.572;2023-08-12T14:48:56;3.80;;;3.50;;
9541;SDS011;4809;48.224;8.572;2023-08-12T14:51:22;4.70;;;3.63;;
9541;SDS011;4809;48.224;8.572;2023-08-12T14:53:48;5.05;;;3.55;;
9541;SDS011;4809;48.224;8.572;2023-08-12T14:56:14;3.75;;;3.13;;
9541;SDS011;4809;48.224;8.572;2023-08-12T14:58:40;4.72;;;3.10;;
9541;SDS011;4809;48.224;8.572;2023-08-12T15:01:05;4.55;;;3.20;;
9541;SDS011;4809;48.224;8.572;2023-08-12T15:03:32;3.75;;;3.15;;
9541;SDS011;4809;48.224;8.572;2023-08-12T15:06:01;3.88;;;3.45;;
9541;SDS011;4809;48.224;8.572;2023-08-12T15:08:28;4.70;;;3.38;;
9541;SDS011;4809;48.224;8.572;2023-08-12T15:10:54;5.43;;;3.15;;
9541;SDS011;4809;48.224;8.572;2023-08-12T15:13:20;4.00;;;2.67;;
9541;SDS011;4809;48.224;8.572;2023-08-12T15:15:46;3.17;;;2.88;;
9541;SDS011;4809;48.224;8.572;2023-08-12T15:18:12;3.67;;;2.83;;
9541;SDS011;4809;48.224;8.572;2023-08-12T15:20:38;5.35;;;3.00;;
9541;SDS011;4809;48.224;8.572;2023-08-12T15:23:03;3.80;;;2.90;;